sensor_id;sensor_type;location;lat;lon;timestamp;P1;durP1;ratioP1;P2;durP2;ratioP2
68196;SDS011;55019;49.382;11.358;2024-03-29T00:01:48;1.95;;;0.82;;
68196;SDS011;55019;49.382;11.358;2024-03-29T00:04:14;2.00;;;0.98;;
68196;SDS011;55019;49.382;11.358;2024-03-29T00:06:39;1.73;;;1.00;;
68196;SDS011;55019;49.382;11.358;2024-03-29T00:09:05;2.42;;;0.90;;
68196;SDS011;55019;49.382;11.358;2024-03-29T00:11:31;2.65;;;0.93;;
68196;SDS011;55019;49.382;11.358;2024-03-29T00:13:57;2.53;;;1.10;;
68196;SDS011;55019;49.382;11.358;2024-03-29T00:16:22;2.47;;;1.15;;
68196;SDS011;55019;49.382;11.358;2024-03-29T00:18:51;1.23;;;0.90;;
68196;SDS011;55019;49.382;11.358;2024-03-29T00:21:17;1.88;;;1.00;;
68196;SDS011;55019;49.382;11.358;2024-03-29T00:23:44;2.15;;;1.13;;
68196;SDS011;55019;49.382;11.358;2024-03-29T00:26:10;2.00;;;1.08;;
68196;SDS011;55019;49.382;11.358;2024-03-29T00:28:37;2.15;;;0.95;;
68196;SDS011;55019;49.382;11.358;2024-03-29T00:31:03;1.70;;;1.20;;
68196;SDS011;55019;49.382;11.358;2024-03-29T00:33:29;2.38;;;0.93;;
68196;SDS011;55019;49.382;11.358;2024-03-29T00:35:55;2.13;;;1.15;;
68196;SDS011;55019;49.382;11.358;2024-03-29T00:38:21;2.47;;;0.75;;
68196;SDS011;55019;49.382;11.358;2024-03-29T00:40:47;1.70;;;0.93;;
68196;SDS011;55019;49.382;11.358;2024-03-29T00:43:13;2.35;;;0.93;;
68196;SDS011;55019;49.382;11.358;2024-03-29T00:45:38;2.22;;;1.15;;
68196;SDS011;55019;49.382;11.358;2024-03-29T00:48:05;1.48;;;0.77;;
68196;SDS011;55019;49.382;11.358;2024-03-29T00:50:31;1.42;;;0.85;;
68196;SDS011;55019;49.382;11.358;2024-03-29T00:52:57;0.82;;;0.70;;
68196;SDS011;55019;49.382;11.358;2024-03-29T00:55:23;1.25;;;0.80;;
68196;SDS011;55019;49.382;11.358;2024-03-29T00:57:49;1.88;;;0.88;;
68196;SDS011;55019;49.382;11.358;2024-03-29T01:00:14;3.92;;;1.17;;
68196;SDS011;55019;49.382;11.358;2024-03-29T01:02:40;1.25;;;0.90;;
68196;SDS011;55019;49.382;11.358;2024-03-29T01:05:06;2.15;;;1.02;;
68196;SDS011;55019;49.382;11.358;2024-03-29T01:07:32;1.35;;;0.90;;
68196;SDS011;55019;49.382;11.358;2024-03-29T01:09:58;3.30;;;1.00;;
68196;SDS011;55019;49.382;11.358;2024-03-29T01:12:24;3.47;;;1.17;;
68196;SDS011;55019;49.382;11.358;2024-03-29T01:14:50;2.13;;;1.20;;
68196;SDS011;55019;49.382;11.358;2024-03-29T01:17:16;0.95;;;0.60;;
68196;SDS011;55019;49.382;11.358;2024-03-29T01:19:41;0.82;;;0.55;;
68196;SDS011;55019;49.382;11.358;2024-03-29T01:22:07;0.98;;;0.50;;
68196;SDS011;55019;49.382;11.358;2024-03-29T01:24:33;2.08;;;0.60;;
68196;SDS011;55019;49.382;11.358;2024-03-29T01:26:59;1.80;;;0.60;;
68196;SDS011;55019;49.382;11.358;2024-03-29T01:29:25;0.80;;;0.43;;
68196;SDS011;55019;49.382;11.358;2024-03-29T01:31:51;1.58;;;0.90;;
68196;SDS011;55019;49.382;11.358;2024-03-29T01:34:16;1.10;;;0.50;;
68196;SDS011;55019;49.382;11.358;2024-03-29T01:36:43;2.10;;;0.90;;
68196;SDS011;55019;49.382;11.358;2024-03-29T01:39:08;0.80;;;0.43;;
68196;SDS011;55019;49.382;11.358;2024-03-29T01:41:39;1.40;;;0.70;;
68196;SDS011;55019;49.382;11.358;2024-03-29T01:44:05;1.98;;;0.80;;
68196;SDS011;55019;49.382;11.358;2024-03-29T01:46:30;2.80;;;0.95;;
68196;SDS011;55019;49.382;11.358;2024-03-29T01:49:00;3.90;;;0.90;;
68196;SDS011;55019;49.382;11.358;2024-03-29T01:51:27;1.45;;;0.60;;
68196;SDS011;55019;49.382;11.358;2024-03-29T01:53:53;0.57;;;0.30;;
68196;SDS011;55019;49.382;11.358;2024-03-29T01:56:21;2.40;;;0.32;;
68196;SDS011;55019;49.382;11.358;2024-03-29T01:58:51;1.30;;;0.30;;
68196;SDS011;55019;49.382;11.358;2024-03-29T02:01:19;0.60;;;0.40;;
68196;SDS011;55019;49.382;11.358;2024-03-29T02:03:44;1.13;;;0.22;;
68196;SDS011;55019;49.382;11.358;2024-03-29T02:06:11;1.25;;;0.40;;
68196;SDS011;55019;49.382;11.358;2024-03-29T02:08:38;1.95;;;0.60;;
68196;SDS011;55019;49.382;11.358;2024-03-29T02:11:04;0.90;;;0.28;;
68196;SDS011;55019;49.382;11.358;2024-03-29T02:13:30;0.63;;;0.30;;
68196;SDS011;55019;49.382;11.358;2024-03-29T02:15:57;1.42;;;0.40;;
68196;SDS011;55019;49.382;11.358;2024-03-29T02:18:23;0.90;;;0.30;;
68196;SDS011;55019;49.382;11.358;2024-03-29T02:20:49;0.60;;;0.35;;
68196;SDS011;55019;49.382;11.358;2024-03-29T02:23:19;0.95;;;0.30;;
68196;SDS011;55019;49.382;11.358;2024-03-29T02:25:46;0.70;;;0.20;;
68196;SDS011;55019;49.382;11.358;2024-03-29T02:28:15;0.75;;;0.20;;
68196;SDS011;55019;49.382;11.358;2024-03-29T02:30:41;0.98;;;0.40;;
68196;SDS011;55019;49.382;11.358;2024-03-29T02:33:07;0.57;;;0.17;;
68196;SDS011;55019;49.382;11.358;2024-03-29T02:35:33;0.60;;;0.25;;
68196;SDS011;55019;49.382;11.358;2024-03-29T02:37:58;1.20;;;0.30;;
68196;SDS011;55019;49.382;11.358;2024-03-29T02:40:24;1.50;;;0.40;;
68196;SDS011;55019;49.382;11.358;2024-03-29T02:42:50;0.80;;;0.45;;
68196;SDS011;55019;49.382;11.358;2024-03-29T02:45:16;0.68;;;0.22;;
68196;SDS011;55019;49.382;11.358;2024-03-29T02:47:42;1.15;;;0.35;;
68196;SDS011;55019;49.382;11.358;2024-03-29T02:50:09;0.17;;;0.15;;
68196;SDS011;55019;49.382;11.358;2024-03-29T02:52:35;0.25;;;0.08;;
68196;SDS011;55019;49.382;11.358;2024-03-29T02:55:01;0.22;;;0.10;;
68196;SDS011;55019;49.382;11.358;2024-03-29T02:57:27;0.85;;;0.10;;
68196;SDS011;55019;49.382;11.358;2024-03-29T02:59:53;0.73;;;0.20;;
68196;SDS011;55019;49.382;11.358;2024-03-29T03:02:19;1.30;;;0.20;;
68196;SDS011;55019;49.382;11.358;2024-03-29T03:04:44;0.47;;;0.20;;
68196;SDS011;55019;49.382;11.358;2024-03-29T03:07:10;0.40;;;0.10;;
68196;SDS011;55019;49.382;11.358;2024-03-29T03:09:54;0.10;;;0.10;;
68196;SDS011;55019;49.382;11.358;2024-03-29T03:12:38;1.00;;;0.30;;
68196;SDS011;55019;49.382;11.358;2024-03-29T03:15:04;0.60;;;0.20;;
68196;SDS011;55019;49.382;11.358;2024-03-29T03:17:30;0.47;;;0.10;;
68196;SDS011;55019;49.382;11.358;2024-03-29T03:19:56;0.30;;;0.13;;
68196;SDS011;55019;49.382;11.358;2024-03-29T03:22:22;0.22;;;0.10;;
68196;SDS011;55019;49.382;11.358;2024-03-29T03:24:48;1.13;;;0.10;;
68196;SDS011;55019;49.382;11.358;2024-03-29T03:27:13;0.98;;;0.20;;
68196;SDS011;55019;49.382;11.358;2024-03-29T03:29:39;0.40;;;0.28;;
68196;SDS011;55019;49.382;11.358;2024-03-29T03:32:05;0.68;;;0.20;;
68196;SDS011;55019;49.382;11.358;2024-03-29T03:34:32;1.17;;;0.63;;
68196;SDS011;55019;49.382;11.358;2024-03-29T03:36:58;0.30;;;0.10;;
68196;SDS011;55019;49.382;11.358;2024-03-29T03:39:23;0.40;;;0.15;;
68196;SDS011;55019;49.382;11.358;2024-03-29T03:41:50;1.50;;;0.25;;
68196;SDS011;55019;49.382;11.358;2024-03-29T03:44:15;0.50;;;0.20;;
68196;SDS011;55019;49.382;11.358;2024-03-29T03:46:41;0.20;;;0.10;;
68196;SDS011;55019;49.382;11.358;2024-03-29T03:49:07;0.77;;;0.20;;
68196;SDS011;55019;49.382;11.358;2024-03-29T03:51:33;0.50;;;0.20;;
68196;SDS011;55019;49.382;11.358;2024-03-29T03:53:59;0.40;;;0.10;;
68196;SDS011;55019;49.382;11.358;2024-03-29T03:56:24;0.65;;;0.20;;
68196;SDS011;55019;49.382;11.358;2024-03-29T03:58:50;1.05;;;0.32;;
68196;SDS011;55019;49.382;11.358;2024-03-29T04:01:16;1.23;;;0.20;;
68196;SDS011;55019;49.382;11.358;2024-03-29T04:03:42;0.57;;;0.10;;
68196;SDS011;55019;49.382;11.358;2024-03-29T04:06:09;0.40;;;0.13;;
68196;SDS011;55019;49.382;11.358;2024-03-29T04:08:34;0.35;;;0.20;;
68196;SDS011;55019;49.382;11.358;2024-03-29T04:11:04;0.68;;;0.30;;
68196;SDS011;55019;49.382;11.358;2024-03-29T04:13:30;1.10;;;0.20;;
68196;SDS011;55019;49.382;11.358;2024-03-29T04:16:02;1.58;;;0.30;;
68196;SDS011;55019;49.382;11.358;2024-03-29T04:18:29;0.98;;;0.22;;
68196;SDS011;55019;49.382;11.358;2024-03-29T04:20:58;1.05;;;0.20;;
68196;SDS011;55019;49.382;11.358;2024-03-29T04:23:25;0.30;;;0.20;;
68196;SDS011;55019;49.382;11.358;2024-03-29T04:25:55;0.90;;;0.28;;
68196;SDS011;55019;49.382;11.358;2024-03-29T04:28:21;0.88;;;0.22;;
68196;SDS011;55019;49.382;11.358;2024-03-29T04:31:05;1.33;;;0.20;;
68196;SDS011;55019;49.382;11.358;2024-03-29T04:33:31;1.55;;;0.20;;
68196;SDS011;55019;49.382;11.358;2024-03-29T04:36:01;0.40;;;0.20;;
68196;SDS011;55019;49.382;11.358;2024-03-29T04:38:28;0.30;;;0.20;;
68196;SDS011;55019;49.382;11.358;2024-03-29T04:40:55;2.17;;;0.20;;
68196;SDS011;55019;49.382;11.358;2024-03-29T04:43:22;0.30;;;0.10;;
68196;SDS011;55019;49.382;11.358;2024-03-29T04:45:50;0.60;;;0.28;;
68196;SDS011;55019;49.382;11.358;2024-03-29T04:48:16;0.60;;;0.17;;
68196;SDS011;55019;49.382;11.358;2024-03-29T04:50:42;0.40;;;0.20;;
68196;SDS011;55019;49.382;11.358;2024-03-29T04:53:08;0.95;;;0.20;;
68196;SDS011;55019;49.382;11.358;2024-03-29T04:55:34;0.43;;;0.20;;
68196;SDS011;55019;49.382;11.358;2024-03-29T04:58:01;1.40;;;0.30;;
68196;SDS011;55019;49.382;11.358;2024-03-29T05:00:27;0.52;;;0.30;;
68196;SDS011;55019;49.382;11.358;2024-03-29T05:02:53;0.45;;;0.17;;
68196;SDS011;55019;49.382;11.358;2024-03-29T05:05:18;0.75;;;0.17;;
68196;SDS011;55019;49.382;11.358;2024-03-29T05:07:44;0.90;;;0.30;;
68196;SDS011;55019;49.382;11.358;2024-03-29T05:10:10;0.40;;;0.30;;
68196;SDS011;55019;49.382;11.358;2024-03-29T05:12:36;0.75;;;0.20;;
68196;SDS011;55019;49.382;11.358;2024-03-29T05:15:02;0.73;;;0.40;;
68196;SDS011;55019;49.382;11.358;2024-03-29T05:17:28;0.80;;;0.43;;
68196;SDS011;55019;49.382;11.358;2024-03-29T05:19:54;1.17;;;0.52;;
68196;SDS011;55019;49.382;11.358;2024-03-29T05:22:20;0.85;;;0.38;;
68196;SDS011;55019;49.382;11.358;2024-03-29T05:24:46;1.02;;;0.10;;
68196;SDS011;55019;49.382;11.358;2024-03-29T05:27:12;0.75;;;0.40;;
68196;SDS011;55019;49.382;11.358;2024-03-29T05:29:38;0.15;;;0.15;;
68196;SDS011;55019;49.382;11.358;2024-03-29T05:32:04;1.00;;;0.22;;
68196;SDS011;55019;49.382;11.358;2024-03-29T05:34:30;1.30;;;0.20;;
68196;SDS011;55019;49.382;11.358;2024-03-29T05:36:56;0.10;;;0.10;;
68196;SDS011;55019;49.382;11.358;2024-03-29T05:39:22;0.55;;;0.22;;
68196;SDS011;55019;49.382;11.358;2024-03-29T05:41:48;1.23;;;0.22;;
68196;SDS011;55019;49.382;11.358;2024-03-29T05:44:14;0.60;;;0.30;;
68196;SDS011;55019;49.382;11.358;2024-03-29T05:46:40;0.10;;;0.10;;
68196;SDS011;55019;49.382;11.358;2024-03-29T05:49:08;0.68;;;0.10;;
68196;SDS011;55019;49.382;11.358;2024-03-29T05:51:34;0.80;;;0.10;;
68196;SDS011;55019;49.382;11.358;2024-03-29T05:54:03;1.00;;;0.30;;
68196;SDS011;55019;49.382;11.358;2024-03-29T05:56:29;0.30;;;0.10;;
68196;SDS011;55019;49.382;11.358;2024-03-29T05:58:57;2.85;;;0.30;;
68196;SDS011;55019;49.382;11.358;2024-03-29T06:01:22;0.30;;;0.17;;
68196;SDS011;55019;49.382;11.358;2024-03-29T06:03:49;0.85;;;0.10;;
68196;SDS011;55019;49.382;11.358;2024-03-29T06:06:18;0.75;;;0.00;;
68196;SDS011;55019;49.382;11.358;2024-03-29T06:08:47;0.47;;;0.13;;
68196;SDS011;55019;49.382;11.358;2024-03-29T06:11:14;0.10;;;0.10;;
68196;SDS011;55019;49.382;11.358;2024-03-29T06:13:40;1.83;;;0.20;;
68196;SDS011;55019;49.382;11.358;2024-03-29T06:16:19;0.38;;;0.20;;
68196;SDS011;55019;49.382;11.358;2024-03-29T06:19:03;1.17;;;0.10;;
68196;SDS011;55019;49.382;11.358;2024-03-29T06:21:29;0.32;;;0.20;;
68196;SDS011;55019;49.382;11.358;2024-03-29T06:23:58;0.57;;;0.30;;
68196;SDS011;55019;49.382;11.358;2024-03-29T06:26:24;0.17;;;0.10;;
68196;SDS011;55019;49.382;11.358;2024-03-29T06:28:50;0.65;;;0.30;;
68196;SDS011;55019;49.382;11.358;2024-03-29T06:31:15;1.08;;;0.20;;
68196;SDS011;55019;49.382;11.358;2024-03-29T06:33:41;1.52;;;0.10;;
68196;SDS011;55019;49.382;11.358;2024-03-29T06:36:07;0.70;;;0.10;;
68196;SDS011;55019;49.382;11.358;2024-03-29T06:38:33;0.70;;;0.20;;
68196;SDS011;55019;49.382;11.358;2024-03-29T06:40:58;1.02;;;0.30;;
68196;SDS011;55019;49.382;11.358;2024-03-29T06:43:24;0.28;;;0.10;;
68196;SDS011;55019;49.382;11.358;2024-03-29T06:45:50;0.77;;;0.10;;
68196;SDS011;55019;49.382;11.358;2024-03-29T06:48:15;0.40;;;0.00;;
68196;SDS011;55019;49.382;11.358;2024-03-29T06:50:41;0.65;;;0.10;;
68196;SDS011;55019;49.382;11.358;2024-03-29T06:53:07;0.20;;;0.10;;
68196;SDS011;55019;49.382;11.358;2024-03-29T06:55:34;0.52;;;0.20;;
68196;SDS011;55019;49.382;11.358;2024-03-29T06:58:02;0.73;;;0.40;;
68196;SDS011;55019;49.382;11.358;2024-03-29T07:00:28;0.50;;;0.35;;
68196;SDS011;55019;49.382;11.358;2024-03-29T07:02:56;1.52;;;0.60;;
68196;SDS011;55019;49.382;11.358;2024-03-29T07:05:22;0.60;;;0.30;;
68196;SDS011;55019;49.382;11.358;2024-03-29T07:07:48;2.17;;;0.30;;
68196;SDS011;55019;49.382;11.358;2024-03-29T07:10:14;0.57;;;0.28;;
68196;SDS011;55019;49.382;11.358;2024-03-29T07:12:40;1.05;;;0.40;;
68196;SDS011;55019;49.382;11.358;2024-03-29T07:15:09;1.15;;;0.17;;
68196;SDS011;55019;49.382;11.358;2024-03-29T07:17:44;0.50;;;0.30;;
68196;SDS011;55019;49.382;11.358;2024-03-29T07:20:27;0.98;;;0.45;;
68196;SDS011;55019;49.382;11.358;2024-03-29T07:23:00;0.50;;;0.10;;
68196;SDS011;55019;49.382;11.358;2024-03-29T07:25:25;0.30;;;0.10;;
68196;SDS011;55019;49.382;11.358;2024-03-29T07:27:51;0.55;;;0.20;;
68196;SDS011;55019;49.382;11.358;2024-03-29T07:30:17;0.30;;;0.15;;
68196;SDS011;55019;49.382;11.358;2024-03-29T07:32:43;1.45;;;0.25;;
68196;SDS011;55019;49.382;11.358;2024-03-29T07:35:09;0.40;;;0.10;;
68196;SDS011;55019;49.382;11.358;2024-03-29T07:37:34;0.10;;;0.10;;
68196;SDS011;55019;49.382;11.358;2024-03-29T07:40:00;0.40;;;0.25;;
68196;SDS011;55019;49.382;11.358;2024-03-29T07:42:26;0.82;;;0.30;;
68196;SDS011;55019;49.382;11.358;2024-03-29T07:44:52;1.27;;;0.20;;
68196;SDS011;55019;49.382;11.358;2024-03-29T07:47:18;0.47;;;0.30;;
68196;SDS011;55019;49.382;11.358;2024-03-29T07:49:44;0.55;;;0.17;;
68196;SDS011;55019;49.382;11.358;2024-03-29T07:52:11;0.70;;;0.22;;
68196;SDS011;55019;49.382;11.358;2024-03-29T07:54:36;0.30;;;0.10;;
68196;SDS011;55019;49.382;11.358;2024-03-29T07:57:03;0.25;;;0.10;;
68196;SDS011;55019;49.382;11.358;2024-03-29T07:59:28;0.10;;;0.08;;
68196;SDS011;55019;49.382;11.358;2024-03-29T08:01:54;5.97;;;0.20;;
68196;SDS011;55019;49.382;11.358;2024-03-29T08:04:21;0.32;;;0.20;;
68196;SDS011;55019;49.382;11.358;2024-03-29T08:06:47;0.28;;;0.00;;
68196;SDS011;55019;49.382;11.358;2024-03-29T08:09:12;0.22;;;0.08;;
68196;SDS011;55019;49.382;11.358;2024-03-29T08:11:39;0.25;;;0.20;;
68196;SDS011;55019;49.382;11.358;2024-03-29T08:14:05;1.40;;;0.20;;
68196;SDS011;55019;49.382;11.358;2024-03-29T08:16:31;0.35;;;0.05;;
68196;SDS011;55019;49.382;11.358;2024-03-29T08:18:57;0.65;;;0.10;;
68196;SDS011;55019;49.382;11.358;2024-03-29T08:21:24;1.52;;;0.60;;
68196;SDS011;55019;49.382;11.358;2024-03-29T08:23:52;0.10;;;0.10;;
68196;SDS011;55019;49.382;11.358;2024-03-29T08:26:22;0.90;;;0.10;;
68196;SDS011;55019;49.382;11.358;2024-03-29T08:28:48;0.25;;;0.10;;
68196;SDS011;55019;49.382;11.358;2024-03-29T08:31:14;0.73;;;0.22;;
68196;SDS011;55019;49.382;11.358;2024-03-29T08:33:41;0.10;;;0.00;;
68196;SDS011;55019;49.382;11.358;2024-03-29T08:36:09;1.38;;;0.20;;
68196;SDS011;55019;49.382;11.358;2024-03-29T08:38:38;0.60;;;0.30;;
68196;SDS011;55019;49.382;11.358;2024-03-29T08:41:08;3.20;;;0.20;;
68196;SDS011;55019;49.382;11.358;2024-03-29T08:43:34;0.32;;;0.20;;
68196;SDS011;55019;49.382;11.358;2024-03-29T08:46:00;0.43;;;0.20;;
68196;SDS011;55019;49.382;11.358;2024-03-29T08:48:27;0.80;;;0.20;;
68196;SDS011;55019;49.382;11.358;2024-03-29T08:50:53;0.20;;;0.20;;
68196;SDS011;55019;49.382;11.358;2024-03-29T08:53:22;0.40;;;0.10;;
68196;SDS011;55019;49.382;11.358;2024-03-29T08:55:48;0.60;;;0.20;;
68196;SDS011;55019;49.382;11.358;2024-03-29T08:58:14;0.43;;;0.28;;
68196;SDS011;55019;49.382;11.358;2024-03-29T09:00:40;1.40;;;0.50;;
68196;SDS011;55019;49.382;11.358;2024-03-29T09:03:09;1.08;;;0.50;;
68196;SDS011;55019;49.382;11.358;2024-03-29T09:05:35;1.27;;;0.70;;
68196;SDS011;55019;49.382;11.358;2024-03-29T09:08:01;1.67;;;0.77;;
68196;SDS011;55019;49.382;11.358;2024-03-29T09:10:28;1.25;;;0.60;;
68196;SDS011;55019;49.382;11.358;2024-03-29T09:12:54;1.23;;;0.70;;
68196;SDS011;55019;49.382;11.358;2024-03-29T09:15:20;1.85;;;0.70;;
68196;SDS011;55019;49.382;11.358;2024-03-29T09:17:46;2.55;;;1.02;;
68196;SDS011;55019;49.382;11.358;2024-03-29T09:20:12;1.92;;;1.00;;
68196;SDS011;55019;49.382;11.358;2024-03-29T09:22:38;1.52;;;0.70;;
68196;SDS011;55019;49.382;11.358;2024-03-29T09:25:05;1.30;;;0.80;;
68196;SDS011;55019;49.382;11.358;2024-03-29T09:27:31;1.98;;;0.98;;
68196;SDS011;55019;49.382;11.358;2024-03-29T09:30:02;2.95;;;1.27;;
68196;SDS011;55019;49.382;11.358;2024-03-29T09:32:31;3.33;;;1.27;;
68196;SDS011;55019;49.382;11.358;2024-03-29T09:34:57;3.75;;;1.85;;
68196;SDS011;55019;49.382;11.358;2024-03-29T09:37:26;2.08;;;1.20;;
68196;SDS011;55019;49.382;11.358;2024-03-29T09:39:53;3.28;;;1.02;;
68196;SDS011;55019;49.382;11.358;2024-03-29T09:42:20;3.13;;;1.15;;
68196;SDS011;55019;49.382;11.358;2024-03-29T09:44:53;2.90;;;1.02;;
68196;SDS011;55019;49.382;11.358;2024-03-29T09:47:24;2.67;;;1.23;;
68196;SDS011;55019;49.382;11.358;2024-03-29T09:49:54;4.22;;;1.52;;
68196;SDS011;55019;49.382;11.358;2024-03-29T09:52:25;4.13;;;1.20;;
68196;SDS011;55019;49.382;11.358;2024-03-29T09:54:55;3.55;;;1.50;;
68196;SDS011;55019;49.382;11.358;2024-03-29T09:57:23;3.15;;;1.67;;
68196;SDS011;55019;49.382;11.358;2024-03-29T09:59:49;2.30;;;1.17;;
68196;SDS011;55019;49.382;11.358;2024-03-29T10:02:16;2.03;;;1.05;;
68196;SDS011;55019;49.382;11.358;2024-03-29T10:04:45;2.95;;;1.40;;
68196;SDS011;55019;49.382;11.358;2024-03-29T10:07:14;2.05;;;1.17;;
68196;SDS011;55019;49.382;11.358;2024-03-29T10:09:41;2.17;;;1.08;;
68196;SDS011;55019;49.382;11.358;2024-03-29T10:12:09;1.60;;;0.80;;
68196;SDS011;55019;49.382;11.358;2024-03-29T10:14:45;2.10;;;0.52;;
68196;SDS011;55019;49.382;11.358;2024-03-29T10:17:20;0.57;;;0.25;;
68196;SDS011;55019;49.382;11.358;2024-03-29T10:19:48;1.70;;;0.25;;
68196;SDS011;55019;49.382;11.358;2024-03-29T10:22:26;2.13;;;0.80;;
68196;SDS011;55019;49.382;11.358;2024-03-29T10:25:00;0.90;;;0.40;;
68196;SDS011;55019;49.382;11.358;2024-03-29T10:27:39;0.88;;;0.30;;
68196;SDS011;55019;49.382;11.358;2024-03-29T10:30:24;1.00;;;0.43;;
68196;SDS011;55019;49.382;11.358;2024-03-29T10:33:05;1.25;;;0.60;;
68196;SDS011;55019;49.382;11.358;2024-03-29T10:35:44;1.45;;;0.50;;
68196;SDS011;55019;49.382;11.358;2024-03-29T10:38:26;2.00;;;0.70;;
68196;SDS011;55019;49.382;11.358;2024-03-29T10:40:59;2.55;;;0.70;;
68196;SDS011;55019;49.382;11.358;2024-03-29T10:43:34;2.22;;;1.40;;
68196;SDS011;55019;49.382;11.358;2024-03-29T10:46:01;1.77;;;0.60;;
68196;SDS011;55019;49.382;11.358;2024-03-29T10:48:43;2.63;;;0.65;;
68196;SDS011;55019;49.382;11.358;2024-03-29T10:51:12;3.30;;;0.63;;
68196;SDS011;55019;49.382;11.358;2024-03-29T10:53:59;1.02;;;0.40;;
68196;SDS011;55019;49.382;11.358;2024-03-29T10:56:34;2.10;;;0.50;;
68196;SDS011;55019;49.382;11.358;2024-03-29T10:59:21;1.35;;;0.60;;
68196;SDS011;55019;49.382;11.358;2024-03-29T11:02:13;1.35;;;0.50;;
68196;SDS011;55019;49.382;11.358;2024-03-29T11:05:06;0.90;;;0.40;;
68196;SDS011;55019;49.382;11.358;2024-03-29T11:07:36;0.82;;;0.30;;
68196;SDS011;55019;49.382;11.358;2024-03-29T11:10:20;1.38;;;0.20;;
68196;SDS011;55019;49.382;11.358;2024-03-29T11:12:50;1.00;;;0.35;;
68196;SDS011;55019;49.382;11.358;2024-03-29T11:15:30;1.08;;;0.45;;
68196;SDS011;55019;49.382;11.358;2024-03-29T11:17:57;0.73;;;0.35;;
68196;SDS011;55019;49.382;11.358;2024-03-29T11:20:24;1.17;;;0.40;;
68196;SDS011;55019;49.382;11.358;2024-03-29T11:23:00;0.60;;;0.47;;
68196;SDS011;55019;49.382;11.358;2024-03-29T11:25:52;1.30;;;0.43;;
68196;SDS011;55019;49.382;11.358;2024-03-29T11:28:26;0.93;;;0.40;;
68196;SDS011;55019;49.382;11.358;2024-03-29T11:31:00;0.70;;;0.30;;
68196;SDS011;55019;49.382;11.358;2024-03-29T11:33:34;0.93;;;0.50;;
68196;SDS011;55019;49.382;11.358;2024-03-29T11:36:14;0.65;;;0.50;;
68196;SDS011;55019;49.382;11.358;2024-03-29T11:38:44;1.75;;;0.40;;
68196;SDS011;55019;49.382;11.358;2024-03-29T11:41:18;0.70;;;0.30;;
68196;SDS011;55019;49.382;11.358;2024-03-29T11:43:55;1.23;;;0.40;;
68196;SDS011;55019;49.382;11.358;2024-03-29T11:46:23;0.70;;;0.35;;
68196;SDS011;55019;49.382;11.358;2024-03-29T11:48:55;1.20;;;0.47;;
68196;SDS011;55019;49.382;11.358;2024-03-29T11:51:22;1.23;;;0.43;;
68196;SDS011;55019;49.382;11.358;2024-03-29T11:53:50;0.80;;;0.40;;
68196;SDS011;55019;49.382;11.358;2024-03-29T11:56:18;1.88;;;0.57;;
68196;SDS011;55019;49.382;11.358;2024-03-29T11:58:45;1.75;;;0.40;;
68196;SDS011;55019;49.382;11.358;2024-03-29T12:01:17;1.40;;;0.20;;
68196;SDS011;55019;49.382;11.358;2024-03-29T12:03:47;1.40;;;0.40;;
68196;SDS011;55019;49.382;11.358;2024-03-29T12:06:21;2.45;;;0.22;;
68196;SDS011;55019;49.382;11.358;2024-03-29T12:08:51;0.68;;;0.30;;
68196;SDS011;55019;49.382;11.358;2024-03-29T12:11:18;0.73;;;0.30;;
68196;SDS011;55019;49.382;11.358;2024-03-29T12:13:44;1.38;;;0.32;;
68196;SDS011;55019;49.382;11.358;2024-03-29T12:16:10;1.30;;;0.50;;
68196;SDS011;55019;49.382;11.358;2024-03-29T12:18:38;0.90;;;0.35;;
68196;SDS011;55019;49.382;11.358;2024-03-29T12:21:05;1.30;;;0.40;;
68196;SDS011;55019;49.382;11.358;2024-03-29T12:23:35;0.75;;;0.32;;
68196;SDS011;55019;49.382;11.358;2024-03-29T12:26:01;0.50;;;0.40;;
68196;SDS011;55019;49.382;11.358;2024-03-29T12:28:28;1.25;;;0.55;;
68196;SDS011;55019;49.382;11.358;2024-03-29T12:30:56;0.70;;;0.50;;
68196;SDS011;55019;49.382;11.358;2024-03-29T12:33:22;1.65;;;0.63;;
68196;SDS011;55019;49.382;11.358;2024-03-29T12:35:49;1.10;;;0.40;;
68196;SDS011;55019;49.382;11.358;2024-03-29T12:38:18;0.70;;;0.30;;
68196;SDS011;55019;49.382;11.358;2024-03-29T12:40:47;1.73;;;0.50;;
68196;SDS011;55019;49.382;11.358;2024-03-29T12:43:15;1.95;;;0.43;;
68196;SDS011;55019;49.382;11.358;2024-03-29T12:45:45;1.17;;;0.65;;
68196;SDS011;55019;49.382;11.358;2024-03-29T12:48:18;1.38;;;0.47;;
68196;SDS011;55019;49.382;11.358;2024-03-29T12:50:46;1.00;;;0.28;;
68196;SDS011;55019;49.382;11.358;2024-03-29T12:53:14;1.25;;;0.50;;
68196;SDS011;55019;49.382;11.358;2024-03-29T12:58:14;0.93;;;0.35;;
68196;SDS011;55019;49.382;11.358;2024-03-29T13:00:42;0.35;;;0.30;;
68196;SDS011;55019;49.382;11.358;2024-03-29T13:03:08;0.55;;;0.30;;
68196;SDS011;55019;49.382;11.358;2024-03-29T13:05:35;0.90;;;0.22;;
68196;SDS011;55019;49.382;11.358;2024-03-29T13:08:08;0.28;;;0.28;;
68196;SDS011;55019;49.382;11.358;2024-03-29T13:10:36;0.30;;;0.30;;
68196;SDS011;55019;49.382;11.358;2024-03-29T13:13:03;1.40;;;0.52;;
68196;SDS011;55019;49.382;11.358;2024-03-29T13:15:32;0.65;;;0.43;;
68196;SDS011;55019;49.382;11.358;2024-03-29T13:18:02;0.63;;;0.32;;
68196;SDS011;55019;49.382;11.358;2024-03-29T13:20:36;0.40;;;0.38;;
68196;SDS011;55019;49.382;11.358;2024-03-29T13:23:07;1.40;;;0.52;;
68196;SDS011;55019;49.382;11.358;2024-03-29T13:25:33;0.32;;;0.30;;
68196;SDS011;55019;49.382;11.358;2024-03-29T13:27:59;0.70;;;0.25;;
68196;SDS011;55019;49.382;11.358;2024-03-29T13:30:26;1.27;;;0.60;;
68196;SDS011;55019;49.382;11.358;2024-03-29T13:32:52;1.60;;;1.48;;
68196;SDS011;55019;49.382;11.358;2024-03-29T13:35:19;1.20;;;1.10;;
68196;SDS011;55019;49.382;11.358;2024-03-29T13:37:47;1.85;;;0.50;;
68196;SDS011;55019;49.382;11.358;2024-03-29T13:40:14;0.50;;;0.20;;
68196;SDS011;55019;49.382;11.358;2024-03-29T13:42:41;1.08;;;0.20;;
68196;SDS011;55019;49.382;11.358;2024-03-29T13:45:08;0.60;;;0.20;;
68196;SDS011;55019;49.382;11.358;2024-03-29T13:47:44;2.30;;;0.52;;
68196;SDS011;55019;49.382;11.358;2024-03-29T13:50:12;0.93;;;0.40;;
68196;SDS011;55019;49.382;11.358;2024-03-29T13:52:42;1.23;;;0.30;;
68196;SDS011;55019;49.382;11.358;2024-03-29T13:57:35;1.27;;;0.47;;
68196;SDS011;55019;49.382;11.358;2024-03-29T14:00:02;1.13;;;0.22;;
68196;SDS011;55019;49.382;11.358;2024-03-29T14:02:32;0.77;;;0.40;;
68196;SDS011;55019;49.382;11.358;2024-03-29T14:05:00;0.98;;;0.20;;
68196;SDS011;55019;49.382;11.358;2024-03-29T14:07:30;0.70;;;0.40;;
68196;SDS011;55019;49.382;11.358;2024-03-29T14:09:56;0.63;;;0.30;;
68196;SDS011;55019;49.382;11.358;2024-03-29T14:12:22;0.17;;;0.10;;
68196;SDS011;55019;49.382;11.358;2024-03-29T14:14:51;0.52;;;0.20;;
68196;SDS011;55019;49.382;11.358;2024-03-29T14:17:19;0.30;;;0.10;;
68196;SDS011;55019;49.382;11.358;2024-03-29T14:19:47;0.10;;;0.10;;
68196;SDS011;55019;49.382;11.358;2024-03-29T14:22:17;0.40;;;0.30;;
68196;SDS011;55019;49.382;11.358;2024-03-29T14:24:47;2.45;;;0.80;;
68196;SDS011;55019;49.382;11.358;2024-03-29T14:27:14;0.75;;;0.50;;
68196;SDS011;55019;49.382;11.358;2024-03-29T14:29:40;0.77;;;0.30;;
68196;SDS011;55019;49.382;11.358;2024-03-29T14:32:06;0.65;;;0.13;;
68196;SDS011;55019;49.382;11.358;2024-03-29T14:34:32;0.35;;;0.10;;
68196;SDS011;55019;49.382;11.358;2024-03-29T14:37:03;0.28;;;0.20;;
68196;SDS011;55019;49.382;11.358;2024-03-29T14:39:29;0.43;;;0.10;;
68196;SDS011;55019;49.382;11.358;2024-03-29T14:41:57;0.30;;;0.20;;
68196;SDS011;55019;49.382;11.358;2024-03-29T14:44:27;0.55;;;0.20;;